createdAt,value
2024-01-30T00:01:09.654Z,8.00
2024-01-30T00:03:49.227Z,8.30
2024-01-30T00:06:23.493Z,8.80
2024-01-30T00:08:51.644Z,8.20
2024-01-30T00:11:19.787Z,8.10
2024-01-30T00:13:47.952Z,7.90
2024-01-30T00:16:24.842Z,8.30
2024-01-30T00:18:54.562Z,8.10
2024-01-30T00:21:23.025Z,9.20
2024-01-30T00:23:51.305Z,8.10
2024-01-30T00:26:19.461Z,7.70
2024-01-30T00:28:47.673Z,7.90
2024-01-30T00:33:44.187Z,6.90
2024-01-30T00:36:12.424Z,7.90
2024-01-30T00:38:41.435Z,8.20
2024-01-30T00:41:10.120Z,8.00
2024-01-30T00:43:38.519Z,9.40
2024-01-30T00:46:06.741Z,9.10
2024-01-30T00:48:36.344Z,9.40
2024-01-30T00:51:05.923Z,9.30
2024-01-30T00:53:34.098Z,8.40
2024-01-30T00:56:02.252Z,9.20
2024-01-30T00:58:30.559Z,8.40
2024-01-30T01:00:59.343Z,8.10
2024-01-30T01:03:27.845Z,9.40
2024-01-30T01:05:56.008Z,8.10
2024-01-30T01:08:24.059Z,8.40
2024-01-30T01:13:20.650Z,7.30
2024-01-30T01:15:48.877Z,8.50
2024-01-30T01:18:17.157Z,7.50
2024-01-30T01:20:45.363Z,9.40
2024-01-30T01:23:13.738Z,8.20
2024-01-30T01:25:41.843Z,9.20
2024-01-30T01:28:10.063Z,9.30
2024-01-30T01:30:38.329Z,10.30
2024-01-30T01:33:07.668Z,8.40
2024-01-30T01:35:35.852Z,8.80
2024-01-30T01:38:04.320Z,9.00
2024-01-30T01:40:32.545Z,8.80
2024-01-30T01:43:06.037Z,9.00
2024-01-30T01:45:34.270Z,9.20
2024-01-30T01:48:02.940Z,8.40
2024-01-30T01:50:31.685Z,9.20
2024-01-30T01:53:04.714Z,8.70
2024-01-30T01:55:35.512Z,8.30
2024-01-30T01:58:06.432Z,8.60
2024-01-30T02:00:36.727Z,8.20
2024-01-30T02:03:06.581Z,11.30
2024-01-30T02:05:37.176Z,8.50
2024-01-30T02:08:06.526Z,8.30
2024-01-30T02:10:35.609Z,8.20
2024-01-30T02:13:03.978Z,9.80
2024-01-30T02:15:32.512Z,8.90
2024-01-30T02:18:02.540Z,8.60
2024-01-30T02:20:33.461Z,8.80
2024-01-30T02:23:02.840Z,9.40
2024-01-30T02:25:46.776Z,9.20
2024-01-30T02:28:17.763Z,8.00
2024-01-30T02:30:47.769Z,9.30
2024-01-30T02:33:16.726Z,9.00
2024-01-30T02:35:45.251Z,9.00
2024-01-30T02:38:14.189Z,9.30
2024-01-30T02:40:42.508Z,9.20
2024-01-30T02:43:11.138Z,10.10
2024-01-30T02:45:40.553Z,10.30
2024-01-30T02:48:09.005Z,10.50
2024-01-30T02:50:37.431Z,9.00
2024-01-30T02:53:05.876Z,10.00
2024-01-30T02:55:35.520Z,9.20
2024-01-30T02:58:04.344Z,13.70
2024-01-30T03:00:34.124Z,14.10
2024-01-30T03:03:02.705Z,13.90
2024-01-30T03:05:31.726Z,12.00
2024-01-30T03:08:00.592Z,11.10
2024-01-30T03:10:29.227Z,11.60
2024-01-30T03:12:57.718Z,9.30
2024-01-30T03:15:26.461Z,9.10
2024-01-30T03:17:55.835Z,12.20
2024-01-30T03:20:24.777Z,12.00
2024-01-30T03:22:55.912Z,11.20
2024-01-30T03:25:24.761Z,11.70
2024-01-30T03:27:54.811Z,10.80
2024-01-30T03:30:23.666Z,9.90
2024-01-30T03:32:53.063Z,10.10
2024-01-30T03:35:22.344Z,9.90
2024-01-30T03:37:51.571Z,9.90
2024-01-30T03:40:20.773Z,12.20
2024-01-30T03:42:51.122Z,10.70
2024-01-30T03:45:20.210Z,9.00
2024-01-30T03:47:48.740Z,9.90
2024-01-30T03:50:17.093Z,9.40
2024-01-30T03:52:45.332Z,9.40
2024-01-30T03:55:14.024Z,11.40
2024-01-30T03:57:42.591Z,11.20
2024-01-30T04:00:12.863Z,9.50
2024-01-30T04:02:42.362Z,9.70
2024-01-30T04:05:10.895Z,10.00
2024-01-30T04:07:40.614Z,10.30
2024-01-30T04:10:10.351Z,10.20
2024-01-30T04:12:38.710Z,9.80
2024-01-30T04:15:08.449Z,9.40
2024-01-30T04:17:36.806Z,10.30
2024-01-30T04:20:06.295Z,10.40
2024-01-30T04:22:34.641Z,9.70
2024-01-30T04:25:04.431Z,12.90
2024-01-30T04:27:33.920Z,9.20
2024-01-30T04:30:02.191Z,10.00
2024-01-30T04:32:30.790Z,9.40
2024-01-30T04:34:59.365Z,8.40
2024-01-30T04:37:28.673Z,9.80
2024-01-30T04:39:57.253Z,9.50
2024-01-30T04:42:25.651Z,11.10
2024-01-30T04:44:55.766Z,9.90
2024-01-30T04:47:23.994Z,9.70
2024-01-30T04:49:52.633Z,9.20
2024-01-30T04:52:21.237Z,9.20
2024-01-30T04:54:49.688Z,8.90
2024-01-30T04:57:17.970Z,9.70
2024-01-30T04:59:46.322Z,9.60
2024-01-30T05:02:16.227Z,10.20
2024-01-30T05:04:44.924Z,11.30
2024-01-30T05:07:13.858Z,11.60
2024-01-30T05:09:42.132Z,9.90
2024-01-30T05:12:11.636Z,9.10
2024-01-30T05:14:39.857Z,10.60
2024-01-30T05:17:10.682Z,10.90
2024-01-30T05:19:39.503Z,9.80
2024-01-30T05:22:08.178Z,10.70
2024-01-30T05:24:38.244Z,11.10
2024-01-30T05:27:08.071Z,9.90
2024-01-30T05:29:36.561Z,10.90
2024-01-30T05:32:06.563Z,11.40
2024-01-30T05:34:35.433Z,11.40
2024-01-30T05:37:06.526Z,13.10
2024-01-30T05:39:34.666Z,11.50
2024-01-30T05:44:32.560Z,9.80
2024-01-30T05:47:04.048Z,11.70
2024-01-30T05:49:33.768Z,9.80
2024-01-30T05:52:04.804Z,10.90
2024-01-30T05:54:33.898Z,11.80
2024-01-30T05:57:02.642Z,10.90
2024-01-30T05:59:32.685Z,11.50
2024-01-30T06:02:04.430Z,11.00
2024-01-30T06:04:34.354Z,11.90
2024-01-30T06:07:03.630Z,11.20
2024-01-30T06:09:33.918Z,13.10
2024-01-30T06:12:05.549Z,10.30
2024-01-30T06:14:37.151Z,11.50
2024-01-30T06:17:07.160Z,10.00
2024-01-30T06:19:36.758Z,9.40
2024-01-30T06:22:05.396Z,12.90
2024-01-30T06:24:35.179Z,10.00
2024-01-30T06:27:03.871Z,11.50
2024-01-30T06:29:32.770Z,13.30
2024-01-30T06:32:02.598Z,11.30
2024-01-30T06:34:31.380Z,13.00
2024-01-30T06:37:00.331Z,11.90
2024-01-30T06:39:29.683Z,12.10
2024-01-30T06:41:59.516Z,10.70
2024-01-30T06:44:33.249Z,11.40
2024-01-30T06:47:02.192Z,13.50
2024-01-30T06:49:30.687Z,12.70
2024-01-30T06:52:00.690Z,12.70
2024-01-30T06:54:30.896Z,10.90
2024-01-30T06:56:59.898Z,12.00
2024-01-30T06:59:30.487Z,13.90
2024-01-30T07:02:02.796Z,11.60
2024-01-30T07:04:32.484Z,14.40
2024-01-30T07:07:01.467Z,12.10
2024-01-30T07:09:32.430Z,13.20
2024-01-30T07:12:00.803Z,13.80
2024-01-30T07:14:31.865Z,11.10
2024-01-30T07:17:00.186Z,12.50
2024-01-30T07:19:30.485Z,11.60
2024-01-30T07:21:59.887Z,12.20
2024-01-30T07:24:29.141Z,12.70
2024-01-30T07:26:58.295Z,13.10
2024-01-30T07:29:36.857Z,11.20
2024-01-30T07:32:08.148Z,13.00
2024-01-30T07:34:53.289Z,12.20
2024-01-30T07:37:32.353Z,12.40
2024-01-30T07:40:04.657Z,13.40
2024-01-30T07:42:35.912Z,13.00
2024-01-30T07:45:06.467Z,12.70
2024-01-30T07:47:35.456Z,13.10
2024-01-30T07:50:08.185Z,12.70
2024-01-30T07:52:37.873Z,12.90
2024-01-30T07:55:10.375Z,12.90
2024-01-30T07:57:44.869Z,12.60
2024-01-30T08:00:16.812Z,12.10
2024-01-30T08:02:49.962Z,10.40
2024-01-30T08:05:37.179Z,10.70
2024-01-30T08:08:19.605Z,12.10
2024-01-30T08:10:53.464Z,10.50
2024-01-30T08:13:26.083Z,12.30
2024-01-30T08:16:00.699Z,12.70
2024-01-30T08:18:30.983Z,14.00
2024-01-30T08:21:01.708Z,11.40
2024-01-30T08:23:31.575Z,13.20
2024-01-30T08:26:00.584Z,11.60
2024-01-30T08:28:34.813Z,11.50
2024-01-30T08:31:06.616Z,12.80
2024-01-30T08:36:27.629Z,10.00
2024-01-30T08:39:01.613Z,11.30
2024-01-30T08:41:32.716Z,11.50
2024-01-30T08:44:05.421Z,10.40
2024-01-30T08:46:35.916Z,13.90
2024-01-30T08:49:05.581Z,9.60
2024-01-30T08:51:35.961Z,10.20
2024-01-30T08:54:05.218Z,11.00
2024-01-30T08:56:36.873Z,10.40
2024-01-30T08:59:10.610Z,9.50
2024-01-30T09:01:40.647Z,11.00
2024-01-30T09:04:17.852Z,9.60
2024-01-30T09:06:50.072Z,10.10
2024-01-30T09:09:20.516Z,10.40
2024-01-30T09:11:50.400Z,9.90
2024-01-30T09:14:23.927Z,12.70
2024-01-30T09:16:57.096Z,13.70
2024-01-30T09:19:26.634Z,11.30
2024-01-30T09:22:06.381Z,11.90
2024-01-30T09:27:10.986Z,9.70
2024-01-30T09:29:51.744Z,11.00
2024-01-30T09:32:21.184Z,8.40
2024-01-30T09:34:53.345Z,9.60
2024-01-30T09:37:24.079Z,7.60
2024-01-30T09:39:56.210Z,8.30
2024-01-30T09:42:37.996Z,9.90
2024-01-30T09:45:12.147Z,8.10
2024-01-30T09:47:43.580Z,8.20
2024-01-30T09:50:14.358Z,10.00
2024-01-30T09:52:47.098Z,8.70
2024-01-30T09:55:15.667Z,12.20
2024-01-30T09:57:45.553Z,8.80
2024-01-30T10:00:40.825Z,6.20
2024-01-30T10:03:54.603Z,7.00
2024-01-30T10:06:47.481Z,6.60
2024-01-30T10:09:48.285Z,7.50
2024-01-30T10:12:17.343Z,5.70
2024-01-30T10:14:45.898Z,6.20
2024-01-30T10:17:21.886Z,5.50
2024-01-30T10:20:03.686Z,6.00
2024-01-30T10:22:47.875Z,5.50
2024-01-30T10:25:17.179Z,6.00
2024-01-30T10:28:15.954Z,5.20
2024-01-30T10:31:06.752Z,4.70
2024-01-30T10:33:36.945Z,5.90
2024-01-30T10:36:06.368Z,4.40
2024-01-30T10:38:39.567Z,5.80
2024-01-30T10:41:16.100Z,4.50
2024-01-30T10:43:51.136Z,4.50
2024-01-30T10:46:21.297Z,4.30
2024-01-30T10:49:02.261Z,4.40
2024-01-30T10:51:33.072Z,4.50
2024-01-30T10:54:04.254Z,5.00
2024-01-30T10:56:34.504Z,4.50
2024-01-30T10:59:04.569Z,4.50
2024-01-30T11:01:33.812Z,4.30
2024-01-30T11:04:03.107Z,3.80
2024-01-30T11:06:31.883Z,3.70
2024-01-30T11:09:10.365Z,4.40
2024-01-30T11:12:00.879Z,4.10
2024-01-30T11:14:49.819Z,4.70
2024-01-30T11:17:19.449Z,4.20
2024-01-30T11:19:50.692Z,4.20
2024-01-30T11:22:21.423Z,4.30
2024-01-30T11:24:50.501Z,3.50
2024-01-30T11:27:19.052Z,4.10
2024-01-30T11:29:55.659Z,3.90
2024-01-30T11:32:31.422Z,3.60
2024-01-30T11:35:01.080Z,3.20
2024-01-30T11:37:32.828Z,4.70
2024-01-30T11:40:04.132Z,3.20
2024-01-30T11:42:34.979Z,3.20
2024-01-30T11:45:07.056Z,4.00
2024-01-30T11:47:42.296Z,5.10
2024-01-30T11:50:12.926Z,4.30
2024-01-30T11:52:46.130Z,4.10
2024-01-30T11:55:16.492Z,4.40
2024-01-30T11:57:51.702Z,5.40
2024-01-30T12:00:23.686Z,4.30
2024-01-30T12:02:57.657Z,4.00
2024-01-30T12:05:33.090Z,3.90
2024-01-30T12:08:04.300Z,4.20
2024-01-30T12:10:41.780Z,3.90
2024-01-30T12:13:11.105Z,4.30
2024-01-30T12:15:41.524Z,4.80
2024-01-30T12:18:15.262Z,3.80
2024-01-30T12:21:23.049Z,3.70
2024-01-30T12:24:02.174Z,4.30
2024-01-30T12:26:39.876Z,4.00
2024-01-30T12:29:12.701Z,3.60
2024-01-30T12:39:03.539Z,5.40
2024-01-30T12:41:32.992Z,4.30
2024-01-30T12:44:03.348Z,4.00
2024-01-30T12:46:34.931Z,4.90
2024-01-30T12:51:55.282Z,4.80
2024-01-30T12:54:36.811Z,4.70
2024-01-30T12:57:08.869Z,4.40
2024-01-30T13:00:01.829Z,4.20
2024-01-30T13:02:37.579Z,4.30
2024-01-30T13:05:11.026Z,4.40
2024-01-30T13:07:41.854Z,6.80
2024-01-30T13:10:16.761Z,4.50
2024-01-30T13:12:46.885Z,4.50
2024-01-30T13:18:35.487Z,3.20
2024-01-30T13:25:44.400Z,4.50
2024-01-30T13:28:43.631Z,4.40
2024-01-30T13:31:17.601Z,4.00
2024-01-30T13:34:09.202Z,4.30
2024-01-30T13:37:09.769Z,4.70
2024-01-30T13:44:56.173Z,4.00
2024-01-30T13:47:51.612Z,4.30
2024-01-30T13:54:42.626Z,3.70
2024-01-30T13:58:12.250Z,4.10
2024-01-30T14:02:27.368Z,5.10
2024-01-30T14:26:11.522Z,3.90
2024-01-30T14:43:01.675Z,6.00
2024-01-30T14:45:49.775Z,5.20
2024-01-30T14:48:19.735Z,5.50
2024-01-30T15:06:36.322Z,7.10
2024-01-30T15:09:09.439Z,6.20
2024-01-30T16:20:13.725Z,7.20
2024-01-30T16:22:55.691Z,10.60
2024-01-30T16:27:10.870Z,12.20
2024-01-30T16:32:51.689Z,10.30
2024-01-30T16:54:10.219Z,8.30
2024-01-30T16:58:07.563Z,7.80
2024-01-30T17:04:42.854Z,7.80
2024-01-30T17:07:59.960Z,7.50
2024-01-30T17:10:56.015Z,11.30
2024-01-30T17:13:47.496Z,13.00
2024-01-30T17:17:13.359Z,13.90
2024-01-30T17:32:06.061Z,31.90
2024-01-30T19:51:23.027Z,11.00
2024-01-30T19:55:00.708Z,9.40
2024-01-30T20:01:35.371Z,11.30
2024-01-30T20:04:07.936Z,11.20
2024-01-30T20:06:37.438Z,11.70
2024-01-30T20:09:09.904Z,14.30
2024-01-30T20:11:38.524Z,11.00
2024-01-30T20:14:09.563Z,12.50
2024-01-30T20:16:52.479Z,11.10
2024-01-30T20:19:24.144Z,12.10
2024-01-30T20:21:55.022Z,10.80
2024-01-30T20:24:27.845Z,14.20
2024-01-30T20:27:03.222Z,12.50
2024-01-30T20:29:38.348Z,12.30
2024-01-30T20:32:11.469Z,11.30
2024-01-30T20:34:46.951Z,12.40
2024-01-30T20:37:43.700Z,10.00
2024-01-30T20:40:26.119Z,13.30
2024-01-30T20:43:01.184Z,12.50
2024-01-30T20:45:34.281Z,12.30
2024-01-30T20:48:17.957Z,12.80
2024-01-30T20:50:52.150Z,12.90
2024-01-30T20:53:51.867Z,12.00
2024-01-30T20:56:21.282Z,13.20
2024-01-30T20:58:57.794Z,13.10
2024-01-30T21:01:34.566Z,15.50
2024-01-30T21:04:08.100Z,14.10
2024-01-30T21:06:38.744Z,13.40
2024-01-30T21:09:08.436Z,16.10
2024-01-30T21:11:38.665Z,16.50
2024-01-30T21:14:07.333Z,17.10
2024-01-30T21:16:36.891Z,15.70
2024-01-30T21:19:06.706Z,17.10
2024-01-30T21:21:38.133Z,16.10
2024-01-30T21:24:10.346Z,14.60
2024-01-30T21:26:40.503Z,15.40
2024-01-30T21:29:09.859Z,16.50
2024-01-30T21:31:40.267Z,15.40
2024-01-30T21:34:09.597Z,15.50
2024-01-30T21:36:39.218Z,15.90
2024-01-30T21:39:09.159Z,15.20
2024-01-30T21:41:38.526Z,16.10
2024-01-30T21:44:08.747Z,18.10
2024-01-30T21:46:39.800Z,17.60
2024-01-30T21:49:10.261Z,19.00
2024-01-30T21:51:39.684Z,17.50
2024-01-30T21:54:09.700Z,16.70
2024-01-30T21:56:41.112Z,17.30
2024-01-30T21:59:09.411Z,16.80
2024-01-30T22:01:37.812Z,16.40
2024-01-30T22:04:06.416Z,16.00
2024-01-30T22:06:35.860Z,15.20
2024-01-30T22:09:05.706Z,16.00
2024-01-30T22:11:34.084Z,16.60
2024-01-30T22:14:02.633Z,16.60
2024-01-30T22:16:31.867Z,15.50
2024-01-30T22:19:02.846Z,15.00
2024-01-30T22:21:33.777Z,15.60
2024-01-30T22:24:02.889Z,14.30
2024-01-30T22:26:45.614Z,17.50
2024-01-30T22:32:16.325Z,13.90
2024-01-30T22:35:15.332Z,14.00
2024-01-30T22:38:02.125Z,12.70
2024-01-30T22:41:24.201Z,14.60
